This is the latest recevied weather packets stored in our database for station/object IZ1DME-3. If no packets are shown the sender has not sent any weather packets the latest 10 day(s).
| Time | Temp. | Humidity | Pressure | Rain* | Wind** | Luminosity | Snow |
|---|---|---|---|---|---|---|---|
| 1777769108 | 12.22° C | 70% | 1023.2 hPa | - | - | - | - |
| 1777767609 | 12.78° C | 69% | 1023.2 hPa | - | - | - | - |
| 1777766109 | 12.78° C | 69% | 1023.7 hPa | - | - | - | - |
| 1777764609 | 13.33° C | 67% | 1023.6 hPa | - | - | - | - |
| 1777763108 | 13.89° C | 67% | 1023.6 hPa | - | - | - | - |
| 1777761610 | 13.89° C | 69% | 1023.7 hPa | - | - | - | - |
| 1777760109 | 13.89° C | 69% | 1023.7 hPa | - | - | - | - |
| 1777758609 | 14.44° C | 69% | 1023.5 hPa | - | - | - | - |
| 1777757109 | 14.44° C | 70% | 1023.6 hPa | - | - | - | - |
| 1777755609 | 15° C | 68% | 1023.4 hPa | - | - | - | - |
| 1777754109 | 15.56° C | 67% | 1023.4 hPa | - | - | - | - |
| 1777752610 | 16.11° C | 65% | 1023.3 hPa | - | - | - | - |
| 1777751109 | 16.11° C | 61% | 1023.2 hPa | - | - | - | - |
| 1777749609 | 17.22° C | 55% | 1022.7 hPa | - | - | - | - |
| 1777748109 | 18.33° C | 55% | 1022.2 hPa | - | - | - | - |
| 1777746609 | 19.44° C | 51% | 1021.8 hPa | - | - | - | - |
| 1777745109 | 20° C | 47% | 1021.7 hPa | - | - | - | - |
| 1777743609 | 20° C | 44% | 1021.4 hPa | - | - | - | - |
| 1777742109 | 20.56° C | 42% | 1021.4 hPa | - | - | - | - |
| 1777740609 | 22.22° C | 41% | 1021.4 hPa | - | - | - | - |
| 1777739110 | 22.22° C | 39% | 1021.5 hPa | - | - | - | - |
| 1777737609 | 22.22° C | 40% | 1021.7 hPa | - | - | - | - |
| 1777736110 | 22.78° C | 37% | 1021.8 hPa | - | - | - | - |
| 1777734609 | 23.33° C | 38% | 1021.9 hPa | - | - | - | - |
| 1777733109 | 22.78° C | 39% | 1022.3 hPa | - | - | - | - |
* Rain since midnight (hover to see other rain measurements)
** Current wind speed in m/s (hover to see current wind gust speed)